Current Weather

Chicago O'Hare International

Chicago, Illinois (KORD)

Report from: Sunday, February 5, 2023 11:51 PM CST
Current time: Monday, February 6, 2023 12:14 AM CST

Nearby weather
Weather history
Weather forecast

Temperature-1.7°C (28.9°F)
Wind chill-4.5°C (23.9°F)
Dew point-5.6°C (21.9°F)
Winds 4 kts (2.1 m/s, 4.6 mph) North-Northwest (330°)
Visibility10 mi. (16.1 km)
Clouds Sky clear
Altimeter30.15 in.Hg (1021 mB)
Relative humidity75 %
Density altitude-2,249 ft. (-685 m)
Sea-level pressure102.2 kPa (1022 mB, 30.17 in.Hg)
Max temp last 6 hours2.2°C (36.0°F)
Min temp last 6 hours-2.2°C (28.0°F)
Max temp last 24 hours5.0°C (41.0°F)
Min temp last 24 hours-2.2°C (28.0°F)
Remarks System requires maintenance
Automated weather observing station with precipitation discriminator
Pressure rising more quickly
Flight conditions Visual Meteorological Conditions
Raw dataKORD 060551Z 33004KT 10SM CLR M02/M06 A3015 RMK AO2 SLP217 T10171056 10022 21022 400501022 53009 $
An error has occurred. This application may no longer respond until reloaded. Reload 🗙